Time;durP1;ratioP1;P1;durP2;ratioP2;P2;SDS_P1;SDS_P2;PMS_P1;PMS_P2;Temp;Humidity;BMP_temperature;BMP_pressure;BME280_temperature;BME280_humidity;BME280_pressure;Samples;Min_cycle;Max_cycle;Signal;HPM_P1;HPM_P2
2024/03/29 00:00:03;;;;;;;2.22;1.25;;;;;;;4.12;100.00;95102.44;4999414;28;20508;-69
2024/03/29 00:02:28;;;;;;;2.38;1.27;;;;;;;4.09;100.00;95100.47;5000950;28;20104;-70
2024/03/29 00:04:53;;;;;;;2.00;1.50;;;;;;;4.06;100.00;95087.63;5001439;28;20049;-70
2024/03/29 00:07:19;;;;;;;2.67;1.30;;;;;;;4.11;100.00;95078.44;4997525;28;20033;-68
2024/03/29 00:09:44;;;;;;;3.22;1.40;;;;;;;4.17;100.00;95058.75;5002636;28;20068;-70
2024/03/29 00:12:09;;;;;;;2.78;1.20;;;;;;;4.12;100.00;95061.78;5006028;28;20042;-70
2024/03/29 00:14:35;;;;;;;3.53;1.25;;;;;;;4.10;100.00;95060.59;5010951;28;20042;-72
2024/03/29 00:17:04;;;;;;;2.95;1.17;;;;;;;4.12;100.00;95047.47;5010197;28;20038;-70
2024/03/29 00:19:29;;;;;;;1.43;1.10;;;;;;;4.15;100.00;95038.63;5005644;28;20104;-69
2024/03/29 00:21:54;;;;;;;1.60;1.05;;;;;;;4.24;100.00;95031.00;5001719;28;20686;-69
2024/03/29 00:24:20;;;;;;;1.48;1.20;;;;;;;4.31;100.00;95028.38;4996277;28;20075;-70
2024/03/29 00:26:46;;;;;;;1.55;0.98;;;;;;;4.34;100.00;95021.44;5001434;28;20034;-70
2024/03/29 00:29:12;;;;;;;4.50;1.10;;;;;;;4.36;100.00;95011.03;4997045;28;20037;-68
2024/03/29 00:31:37;;;;;;;2.08;1.00;;;;;;;4.33;100.00;95009.81;5001291;28;20049;-71
2024/03/29 00:34:02;;;;;;;1.48;0.90;;;;;;;4.30;100.00;95015.97;4998132;28;20385;-68
2024/03/29 00:36:28;;;;;;;4.82;1.08;;;;;;;4.31;100.00;95000.50;4982750;28;20487;-71
2024/03/29 00:38:53;;;;;;;1.38;0.80;;;;;;;4.23;100.00;95002.31;4983766;28;20038;-71
2024/03/29 00:41:19;;;;;;;0.80;0.75;;;;;;;4.18;100.00;94987.19;4997078;28;20038;-70
2024/03/29 00:43:44;;;;;;;1.95;1.20;;;;;;;4.21;100.00;94975.63;5002556;28;20128;-70
2024/03/29 00:46:09;;;;;;;2.47;0.80;;;;;;;4.25;100.00;94974.84;4997620;28;20508;-72
2024/03/29 00:48:35;;;;;;;3.47;1.65;;;;;;;4.34;100.00;94969.94;5002543;28;20443;-71
2024/03/29 00:51:00;;;;;;;1.25;0.93;;;;;;;4.35;100.00;94953.31;5002297;28;20072;-71
2024/03/29 00:53:25;;;;;;;0.80;0.70;;;;;;;4.28;100.00;94947.03;4995044;28;20041;-67
2024/03/29 00:55:51;;;;;;;1.10;0.90;;;;;;;4.41;100.00;94940.22;5001539;28;20049;-69
2024/03/29 00:58:16;;;;;;;1.98;0.88;;;;;;;4.36;100.00;94929.72;4995974;28;20041;-68
2024/03/29 01:00:41;;;;;;;1.15;0.80;;;;;;;4.34;100.00;94924.66;5000995;28;20045;-71
2024/03/29 01:03:07;;;;;;;2.40;0.82;;;;;;;4.31;100.00;94911.84;4978288;28;20496;-68
2024/03/29 01:05:32;;;;;;;1.48;0.90;;;;;;;4.24;100.00;94905.56;5000132;28;20423;-70
2024/03/29 01:07:58;;;;;;;2.08;1.10;;;;;;;4.38;100.00;94903.78;5001087;28;20492;-71
2024/03/29 01:10:24;;;;;;;1.95;1.08;;;;;;;4.36;100.00;94899.91;4993122;28;20395;-71
2024/03/29 01:12:49;;;;;;;0.75;0.70;;;;;;;4.32;100.00;94907.19;5000274;28;20120;-68
2024/03/29 01:15:14;;;;;;;1.35;0.90;;;;;;;4.37;100.00;94896.78;4994738;28;20041;-70
2024/03/29 01:17:40;;;;;;;1.20;0.90;;;;;;;4.25;100.00;94893.56;4999993;28;20045;-69
2024/03/29 01:20:08;;;;;;;1.77;0.85;;;;;;;4.24;100.00;94898.19;4994958;28;20094;-69
2024/03/29 01:22:33;;;;;;;2.17;1.15;;;;;;;4.33;100.00;94893.28;5000293;28;20069;-69
2024/03/29 01:24:59;;;;;;;1.05;0.85;;;;;;;4.42;100.00;94892.97;4999527;28;20033;-70
2024/03/29 01:27:24;;;;;;;0.98;0.80;;;;;;;4.36;100.00;94891.78;4994451;28;20230;-70
2024/03/29 01:29:49;;;;;;;3.92;1.10;;;;;;;4.42;100.00;94884.09;5001051;28;20140;-69
2024/03/29 01:32:15;;;;;;;1.98;1.05;;;;;;;4.53;100.00;94890.38;4995826;28;20037;-70
2024/03/29 01:34:40;;;;;;;1.33;1.00;;;;;;;4.57;100.00;94893.91;4998476;28;20046;-71
2024/03/29 01:37:06;;;;;;;1.85;1.10;;;;;;;4.63;100.00;94900.56;4996318;28;20499;-71
2024/03/29 01:39:31;;;;;;;2.15;0.90;;;;;;;4.66;100.00;94899.03;5000267;28;20460;-70
2024/03/29 01:41:57;;;;;;;0.75;0.70;;;;;;;4.70;100.00;94894.41;5000209;28;20030;-71
2024/03/29 01:44:22;;;;;;;2.45;0.98;;;;;;;4.79;100.00;94911.97;4994937;28;20097;-72
2024/03/29 01:46:48;;;;;;;1.50;0.90;;;;;;;4.79;100.00;94903.06;5000791;28;20037;-70
2024/03/29 01:49:14;;;;;;;2.25;0.90;;;;;;;4.73;100.00;94899.88;4995526;28;20124;-70
2024/03/29 01:51:40;;;;;;;1.02;0.85;;;;;;;4.69;100.00;94879.31;4998853;28;20061;-70
2024/03/29 01:54:07;;;;;;;1.10;0.90;;;;;;;4.64;100.00;94872.28;4993851;28;20107;-69
2024/03/29 01:56:35;;;;;;;1.63;0.90;;;;;;;4.77;100.00;94876.31;4998659;28;20374;-70
2024/03/29 01:59:03;;;;;;;3.15;1.00;;;;;;;4.74;100.00;94877.03;4999106;28;20042;-70
2024/03/29 02:01:30;;;;;;;3.30;0.98;;;;;;;4.72;100.00;94890.19;5006598;28;20049;-71
2024/03/29 02:03:56;;;;;;;0.75;0.73;;;;;;;4.89;100.00;94898.88;5009211;28;20108;-70
2024/03/29 02:06:23;;;;;;;2.53;0.68;;;;;;;4.90;100.00;94901.22;4996885;28;20059;-69
2024/03/29 02:08:54;;;;;;;1.67;0.90;;;;;;;4.95;100.00;94897.38;5000391;28;20033;-72
2024/03/29 02:11:21;;;;;;;1.10;0.80;;;;;;;4.99;100.00;94895.50;4993905;28;20053;-70
2024/03/29 02:13:47;;;;;;;0.75;0.70;;;;;;;5.10;100.00;94899.06;4996925;28;20049;-68
2024/03/29 02:16:13;;;;;;;1.05;0.80;;;;;;;5.16;100.00;94886.69;4977753;28;20030;-70
2024/03/29 02:18:38;;;;;;;1.25;0.88;;;;;;;5.07;100.00;94890.91;4999794;28;20053;-69
2024/03/29 02:21:04;;;;;;;1.25;0.75;;;;;;;5.23;100.00;94896.06;4996463;28;20091;-68
2024/03/29 02:23:32;;;;;;;1.05;0.80;;;;;;;5.12;100.00;94895.97;4999581;28;20046;-70
2024/03/29 02:25:58;;;;;;;1.63;0.80;;;;;;;5.03;100.00;94890.09;4999152;28;20129;-69
2024/03/29 02:28:25;;;;;;;0.95;0.75;;;;;;;5.05;100.00;94874.97;4994674;28;20125;-68
2024/03/29 02:30:51;;;;;;;1.20;0.82;;;;;;;5.29;100.00;94862.75;4998941;28;20034;-72
2024/03/29 02:33:16;;;;;;;1.17;0.80;;;;;;;5.30;100.00;94863.53;4995876;28;20489;-71
2024/03/29 02:35:42;;;;;;;3.47;0.70;;;;;;;5.26;100.00;94874.38;5000531;28;20038;-70
2024/03/29 02:38:07;;;;;;;1.60;0.80;;;;;;;5.32;100.00;94858.50;4995879;28;20069;-70
2024/03/29 02:40:33;;;;;;;1.65;0.90;;;;;;;5.59;98.94;94861.78;5004030;28;20053;-70
2024/03/29 02:42:58;;;;;;;1.88;1.20;;;;;;;5.63;98.50;94856.38;5002905;28;20058;-70
2024/03/29 02:45:23;;;;;;;0.93;0.80;;;;;;;5.73;96.48;94847.50;4999556;28;20046;-70
2024/03/29 02:47:49;;;;;;;1.77;0.82;;;;;;;5.69;96.89;94846.69;5003633;28;20045;-72
2024/03/29 02:50:16;;;;;;;1.45;0.82;;;;;;;5.56;97.78;94848.97;4998393;28;20393;-71
2024/03/29 02:52:42;;;;;;;1.73;0.82;;;;;;;5.69;95.82;94852.13;5001817;28;20463;-70
2024/03/29 02:55:09;;;;;;;1.50;0.70;;;;;;;5.85;93.21;94859.97;4997595;28;20041;-70
2024/03/29 02:57:34;;;;;;;1.02;0.70;;;;;;;5.74;95.54;94866.16;5002810;28;20046;-71
2024/03/29 03:00:00;;;;;;;1.52;0.77;;;;;;;6.00;90.29;94869.03;5003578;28;20050;-70
2024/03/29 03:02:25;;;;;;;2.58;0.77;;;;;;;6.11;88.84;94883.44;4997822;28;20046;-71
2024/03/29 03:04:50;;;;;;;1.38;0.93;;;;;;;5.93;91.16;94892.25;5002874;28;20440;-70
2024/03/29 03:12:44;;;;;;;0.88;0.80;;;;;;;5.93;87.81;94884.09;5003021;28;20052;-71
2024/03/29 03:15:09;;;;;;;2.28;0.80;;;;;;;5.97;87.05;94870.56;4998010;28;20045;-71
2024/03/29 03:17:34;;;;;;;2.05;0.63;;;;;;;5.96;88.96;94892.66;5002427;28;20100;-71
2024/03/29 03:20:00;;;;;;;0.95;0.68;;;;;;;5.89;89.61;94880.59;5002555;28;20077;-71
2024/03/29 03:22:25;;;;;;;0.70;0.70;;;;;;;5.80;91.56;94891.03;4998991;28;20440;-70
2024/03/29 03:24:51;;;;;;;0.80;0.65;;;;;;;5.76;92.85;94890.19;5002893;28;20333;-71
2024/03/29 03:27:16;;;;;;;1.05;0.70;;;;;;;5.81;88.21;94894.50;4998633;28;20038;-71
2024/03/29 03:29:41;;;;;;;0.82;0.63;;;;;;;5.61;91.39;94883.91;5014627;28;20033;-71
2024/03/29 03:32:07;;;;;;;1.10;0.80;;;;;;;5.48;99.26;94885.38;5022938;28;20048;-70
2024/03/29 03:34:33;;;;;;;2.17;0.93;;;;;;;5.31;100.00;94868.59;5025587;28;20046;-70
2024/03/29 03:36:59;;;;;;;5.40;1.08;;;;;;;5.10;100.00;94876.59;5006947;28;20065;-71
2024/03/29 03:39:24;;;;;;;1.05;0.90;;;;;;;4.70;100.00;94868.09;4999284;28;20143;-69
2024/03/29 03:41:50;;;;;;;1.73;1.00;;;;;;;4.37;100.00;94863.50;5002983;28;20038;-71
2024/03/29 03:44:15;;;;;;;1.98;1.10;;;;;;;4.13;100.00;94862.84;4997257;28;20085;-69
2024/03/29 03:46:41;;;;;;;1.98;1.20;;;;;;;3.89;100.00;94857.91;5001664;28;20053;-70
2024/03/29 03:49:06;;;;;;;2.47;1.00;;;;;;;3.70;100.00;94850.72;4997225;28;20137;-71
2024/03/29 03:51:32;;;;;;;1.23;1.00;;;;;;;3.80;100.00;94841.97;5001025;28;20068;-71
2024/03/29 03:53:57;;;;;;;3.63;1.10;;;;;;;4.00;100.00;94834.47;5000909;28;20038;-71
2024/03/29 03:56:22;;;;;;;1.67;1.00;;;;;;;4.20;100.00;94830.41;4997945;28;20492;-70
2024/03/29 03:58:48;;;;;;;1.10;1.00;;;;;;;4.32;100.00;94836.72;5000635;28;20034;-70
2024/03/29 04:01:13;;;;;;;2.58;1.20;;;;;;;4.39;100.00;94850.34;4996443;28;20041;-71
2024/03/29 04:03:39;;;;;;;3.03;1.02;;;;;;;4.36;100.00;94861.94;5001878;28;20042;-70
2024/03/29 04:06:06;;;;;;;2.00;1.10;;;;;;;4.45;100.00;94867.84;4996611;28;20049;-71
2024/03/29 04:08:31;;;;;;;2.92;1.15;;;;;;;4.17;100.00;94869.09;5000855;28;20067;-71
2024/03/29 04:10:57;;;;;;;2.22;0.90;;;;;;;4.25;100.00;94872.69;5001495;28;20460;-71
2024/03/29 04:13:23;;;;;;;1.40;0.93;;;;;;;3.85;100.00;94876.81;4997525;28;20896;-71
2024/03/29 04:15:49;;;;;;;1.40;0.90;;;;;;;3.43;100.00;94877.81;4984312;28;20033;-71
2024/03/29 04:18:15;;;;;;;1.15;0.90;;;;;;;3.42;100.00;94876.25;4997584;28;20030;-70
2024/03/29 04:20:40;;;;;;;1.85;1.00;;;;;;;3.36;100.00;94878.47;4984183;28;20050;-71
2024/03/29 04:23:06;;;;;;;1.10;0.73;;;;;;;3.00;100.00;94879.88;4997187;28;20612;-70
2024/03/29 04:25:32;;;;;;;1.95;1.48;;;;;;;3.10;100.00;94876.56;4984450;28;20037;-69
2024/03/29 04:27:58;;;;;;;2.10;1.10;;;;;;;3.08;100.00;94880.75;4985039;28;20729;-71
2024/03/29 04:30:24;;;;;;;0.95;0.85;;;;;;;2.98;100.00;94877.53;4996961;28;20042;-71
2024/03/29 04:32:49;;;;;;;1.25;0.93;;;;;;;2.82;100.00;94872.25;5002685;28;20041;-69
2024/03/29 04:35:14;;;;;;;2.08;1.15;;;;;;;2.80;100.00;94860.22;4996550;28;20033;-71
2024/03/29 04:37:40;;;;;;;1.60;1.08;;;;;;;2.90;100.00;94837.19;5001658;28;20062;-69
2024/03/29 04:40:06;;;;;;;2.17;1.45;;;;;;;2.85;100.00;94868.03;4996667;28;20124;-71
2024/03/29 04:42:31;;;;;;;2.35;1.50;;;;;;;2.73;100.00;94869.00;5001277;28;20046;-71
2024/03/29 04:44:57;;;;;;;4.50;1.73;;;;;;;2.64;100.00;94869.22;5002065;28;20041;-70
2024/03/29 04:47:22;;;;;;;1.90;1.20;;;;;;;2.61;100.00;94859.16;4996831;28;20115;-72
2024/03/29 04:49:47;;;;;;;5.28;1.60;;;;;;;2.49;100.00;94868.22;4983010;28;20030;-70
2024/03/29 04:52:13;;;;;;;3.50;1.67;;;;;;;2.45;100.00;94863.91;4979229;28;20132;-70
2024/03/29 04:54:38;;;;;;;2.25;1.30;;;;;;;2.60;100.00;94871.09;4998954;28;20038;-70
2024/03/29 04:57:06;;;;;;;2.53;1.30;;;;;;;2.73;100.00;94852.00;4994944;28;20041;-70
2024/03/29 04:59:32;;;;;;;3.30;1.60;;;;;;;2.66;100.00;94891.28;5000822;28;20517;-70
2024/03/29 05:01:59;;;;;;;2.80;1.50;;;;;;;2.69;100.00;94873.56;4999542;28;20129;-70
2024/03/29 05:04:25;;;;;;;2.92;1.40;;;;;;;2.75;100.00;94884.88;4995500;28;20045;-70
2024/03/29 05:06:57;;;;;;;3.25;1.42;;;;;;;2.73;100.00;94887.16;5002023;28;20050;-69
2024/03/29 05:09:24;;;;;;;3.63;1.83;;;;;;;2.14;100.00;94862.16;4995357;28;20041;-70
2024/03/29 05:11:50;;;;;;;3.70;1.70;;;;;;;2.20;100.00;94883.13;4993231;28;20042;-71
2024/03/29 05:14:18;;;;;;;3.83;1.55;;;;;;;2.35;100.00;94899.59;4996451;28;20034;-70
2024/03/29 05:16:44;;;;;;;3.90;1.60;;;;;;;2.36;100.00;94893.84;4982201;28;20049;-70
2024/03/29 05:19:10;;;;;;;3.38;1.58;;;;;;;2.46;100.00;94904.06;4995732;28;20130;-70
2024/03/29 05:21:35;;;;;;;2.25;1.63;;;;;;;2.35;100.00;94865.25;5000083;28;20655;-71
2024/03/29 05:24:01;;;;;;;2.70;1.70;;;;;;;1.97;100.00;94877.66;4982185;28;20095;-70
2024/03/29 05:26:26;;;;;;;3.40;1.70;;;;;;;2.13;100.00;94893.78;4978596;28;20071;-69
2024/03/29 05:28:54;;;;;;;3.22;1.83;;;;;;;2.36;100.00;94907.34;5001815;28;20067;-69
2024/03/29 05:31:19;;;;;;;3.80;1.55;;;;;;;2.43;100.00;94909.38;4996612;28;20060;-69
2024/03/29 05:33:45;;;;;;;2.55;1.70;;;;;;;2.64;100.00;94915.19;5000834;28;20041;-69
2024/03/29 05:36:13;;;;;;;3.78;1.52;;;;;;;3.14;100.00;94912.56;4996072;28;20390;-70
2024/03/29 05:38:39;;;;;;;2.42;1.48;;;;;;;4.28;100.00;94947.81;4999904;28;20153;-69
2024/03/29 05:41:05;;;;;;;2.15;1.45;;;;;;;5.30;100.00;94989.19;4961338;28;20042;-69
2024/03/29 05:43:31;;;;;;;2.92;1.70;;;;;;;6.06;100.00;95006.09;4996028;28;20137;-71
2024/03/29 05:45:56;;;;;;;2.58;1.40;;;;;;;7.14;100.00;95031.84;5001624;28;20042;-70
2024/03/29 05:48:22;;;;;;;3.00;1.27;;;;;;;7.99;100.00;95032.34;4984036;28;20393;-69
2024/03/29 05:50:47;;;;;;;3.70;1.65;;;;;;;8.92;92.84;95034.13;5004027;28;20061;-70
2024/03/29 05:53:13;;;;;;;3.50;1.73;;;;;;;10.17;82.62;95035.25;4980818;28;20045;-71
2024/03/29 05:55:38;;;;;;;2.40;1.30;;;;;;;11.04;74.87;95027.72;5005403;28;20100;-70
2024/03/29 05:58:05;;;;;;;2.63;1.30;;;;;;;11.66;70.94;95027.69;4995528;28;20289;-68
2024/03/29 06:00:33;;;;;;;1.88;1.40;;;;;;;11.37;71.60;95021.84;4997417;28;20057;-70
2024/03/29 06:02:58;;;;;;;2.97;1.70;;;;;;;11.09;70.93;95010.03;5000489;28;20661;-70
2024/03/29 06:05:24;;;;;;;2.30;1.15;;;;;;;10.88;71.52;95008.38;4996347;28;20045;-69
2024/03/29 06:07:49;;;;;;;2.75;1.30;;;;;;;9.48;80.83;94985.81;5000856;28;20049;-71
2024/03/29 06:10:15;;;;;;;2.88;1.52;;;;;;;8.85;86.42;94980.31;4976593;28;20456;-70
2024/03/29 06:12:40;;;;;;;2.92;1.67;;;;;;;8.11;93.43;94980.13;4999208;28;20045;-70
2024/03/29 06:17:50;;;;;;;2.72;1.40;;;;;;;10.52;76.85;94987.63;4999197;28;20034;-71
2024/03/29 06:20:16;;;;;;;2.42;1.42;;;;;;;11.51;71.52;94977.00;4994093;28;20052;-69
2024/03/29 06:22:41;;;;;;;2.00;1.17;;;;;;;13.16;62.22;94988.56;4998475;28;20038;-70
2024/03/29 06:25:09;;;;;;;2.05;1.15;;;;;;;12.97;59.89;94995.63;4995789;28;20100;-69
2024/03/29 06:27:37;;;;;;;2.30;1.10;;;;;;;14.59;55.37;95004.94;5002173;28;20042;-70
2024/03/29 06:30:03;;;;;;;2.28;1.20;;;;;;;12.01;60.29;95011.88;4996115;28;20128;-67
2024/03/29 06:32:29;;;;;;;2.67;1.30;;;;;;;11.22;66.73;95007.56;4981659;28;20041;-71
2024/03/29 06:34:55;;;;;;;2.67;1.40;;;;;;;11.68;66.08;95019.81;5000632;28;20100;-70
2024/03/29 06:37:21;;;;;;;8.82;1.58;;;;;;;11.74;65.39;95007.19;4996662;28;20550;-69
2024/03/29 06:39:53;;;;;;;2.70;1.33;;;;;;;12.32;62.92;95006.28;4982767;28;20408;-70
2024/03/29 06:42:18;;;;;;;5.25;1.48;;;;;;;12.90;61.86;95004.00;4978194;28;20488;-70
2024/03/29 06:44:44;;;;;;;2.08;1.20;;;;;;;13.34;59.56;95012.16;4999843;28;20048;-70
2024/03/29 06:47:09;;;;;;;3.40;1.40;;;;;;;13.80;57.37;95001.34;4993836;28;20097;-70
2024/03/29 06:49:35;;;;;;;3.80;1.20;;;;;;;14.94;50.95;94999.66;5001208;28;20084;-71
2024/03/29 06:52:01;;;;;;;2.95;1.58;;;;;;;15.67;50.18;94988.84;4998801;28;20424;-69
2024/03/29 06:54:31;;;;;;;2.97;1.33;;;;;;;16.85;46.31;95002.78;4995988;28;20045;-70
2024/03/29 06:56:57;;;;;;;1.85;1.05;;;;;;;17.30;44.17;95012.63;4993849;28;20030;-69
2024/03/29 06:59:23;;;;;;;4.28;1.50;;;;;;;18.08;42.60;94997.00;4977504;28;20602;-70
2024/03/29 07:01:52;;;;;;;2.03;0.98;;;;;;;18.68;40.53;94998.47;5000357;28;20125;-69
2024/03/29 07:04:27;;;;;;;2.08;1.10;;;;;;;18.36;40.43;94992.28;4995066;28;20120;-70
2024/03/29 07:06:53;;;;;;;2.25;0.90;;;;;;;18.28;39.13;95005.66;4981843;28;20026;-70
2024/03/29 07:09:20;;;;;;;2.90;1.17;;;;;;;15.00;44.92;94976.63;4995163;28;20045;-70
2024/03/29 07:11:50;;;;;;;1.75;0.93;;;;;;;16.56;43.25;94989.91;5000122;28;20049;-70
2024/03/29 07:14:15;;;;;;;;;;;;;;;16.13;44.84;94963.75;4996400;28;20120;-70
2024/03/29 07:16:45;;;;;;;2.95;1.02;;;;;;;17.76;41.21;94987.94;4980083;28;20288;-70
2024/03/29 07:19:15;;;;;;;4.32;1.42;;;;;;;17.14;41.72;94975.66;4992419;28;20069;-71
2024/03/29 07:21:45;;;;;;;4.32;2.28;;;;;;;17.24;43.28;94984.75;4999982;28;20037;-70
2024/03/29 07:24:10;;;;;;;10.18;2.75;;;;;;;16.94;42.95;94975.97;4992456;28;20038;-71
2024/03/29 07:26:36;;;;;;;8.23;5.95;;;;;;;14.55;49.62;94955.41;5002296;28;20072;-70
2024/03/29 07:29:02;;;;;;;8.77;3.08;;;;;;;17.07;44.78;94970.38;5001619;28;20026;-66
2024/03/29 07:31:27;;;;;;;3.63;2.28;;;;;;;15.67;48.49;94947.44;4982551;28;20044;-71
2024/03/29 07:33:53;;;;;;;5.22;2.75;;;;;;;16.99;45.34;94946.97;5005295;28;20038;-71
2024/03/29 07:36:18;;;;;;;3.92;2.55;;;;;;;15.22;50.02;94938.16;4997820;28;20081;-71
2024/03/29 07:38:44;;;;;;;2.92;1.30;;;;;;;16.02;48.41;94953.81;4984130;28;20038;-71
2024/03/29 07:41:10;;;;;;;2.13;0.80;;;;;;;14.28;51.33;94939.97;4988035;28;20056;-71
2024/03/29 07:43:52;;;;;;;9.18;6.07;;;;;;;13.83;54.78;94923.41;5002603;28;20046;-70
2024/03/29 07:46:17;;;;;;;2.28;1.63;;;;;;;15.98;52.00;94930.31;4998627;28;20045;-70
2024/03/29 07:48:43;;;;;;;2.97;1.10;;;;;;;16.60;49.05;94927.00;5003765;28;20046;-71
2024/03/29 07:51:08;;;;;;;5.78;4.00;;;;;;;17.16;48.26;94919.84;5012793;28;20061;-70
2024/03/29 07:53:34;;;;;;;2.90;1.20;;;;;;;18.42;44.94;94915.63;5019772;28;20038;-69
2024/03/29 07:56:00;;;;;;;12.25;8.57;;;;;;;15.36;50.73;94900.31;5012228;28;20044;-71
2024/03/29 07:58:26;;;;;;;7.97;5.97;;;;;;;14.12;56.01;94893.22;4998591;28;20037;-70
2024/03/29 08:00:52;;;;;;;5.28;2.50;;;;;;;12.59;60.07;94890.84;5002479;28;20054;-69
2024/03/29 08:03:17;;;;;;;8.48;3.92;;;;;;;12.51;63.26;94900.41;4996891;28;20397;-71
2024/03/29 08:05:43;;;;;;;4.88;1.63;;;;;;;12.17;66.54;94887.72;5001949;28;20046;-71
2024/03/29 08:08:08;;;;;;;9.27;4.88;;;;;;;12.59;69.64;94880.63;4997383;28;20042;-73
2024/03/29 08:10:34;;;;;;;5.97;3.60;;;;;;;12.95;69.11;94870.84;5002660;28;20740;-71
2024/03/29 08:13:00;;;;;;;11.63;5.75;;;;;;;13.37;67.80;94869.09;5002769;28;20048;-71
2024/03/29 08:15:27;;;;;;;7.25;4.00;;;;;;;13.67;67.32;94867.22;4998142;28;20046;-71
2024/03/29 08:17:55;;;;;;;2.90;1.20;;;;;;;13.98;64.05;94866.81;4984589;28;20048;-69
2024/03/29 08:20:23;;;;;;;5.47;2.35;;;;;;;13.17;68.68;94866.41;4996435;28;20560;-69
2024/03/29 08:22:48;;;;;;;10.80;5.57;;;;;;;13.73;68.88;94859.22;5000109;28;20034;-70
2024/03/29 08:25:14;;;;;;;5.95;3.80;;;;;;;12.97;68.98;94876.69;4995767;28;20443;-71
2024/03/29 08:27:39;;;;;;;4.63;2.70;;;;;;;13.09;72.54;94881.53;5001175;28;20045;-70
2024/03/29 08:30:05;;;;;;;5.13;3.38;;;;;;;13.48;65.64;94879.09;4995934;28;20389;-71
2024/03/29 08:32:31;;;;;;;2.60;1.38;;;;;;;14.18;62.53;94880.44;5002148;28;20107;-69
2024/03/29 08:34:57;;;;;;;2.67;1.00;;;;;;;14.89;62.42;94868.63;5001576;28;20038;-69
2024/03/29 08:37:23;;;;;;;15.57;6.07;;;;;;;15.22;61.13;94885.00;4997122;28;20042;-68
2024/03/29 08:39:48;;;;;;;21.33;8.10;;;;;;;15.54;63.12;94892.28;5001716;28;20061;-69
2024/03/29 08:42:14;;;;;;;6.40;2.97;;;;;;;15.68;64.19;94902.06;4997432;28;20050;-70
2024/03/29 08:44:39;;;;;;;4.53;1.50;;;;;;;15.96;61.90;94897.63;5001343;28;20370;-70
2024/03/29 08:47:05;;;;;;;3.05;1.50;;;;;;;16.18;63.48;94905.94;4997294;28;20400;-71
2024/03/29 08:49:31;;;;;;;2.13;1.38;;;;;;;16.19;62.66;94901.22;5000944;28;20512;-71
2024/03/29 08:51:59;;;;;;;2.13;1.27;;;;;;;16.16;63.14;94916.66;5000610;28;20038;-71
2024/03/29 08:54:24;;;;;;;5.65;3.60;;;;;;;16.26;63.88;94912.00;4991129;28;20660;-70
2024/03/29 08:56:49;;;;;;;6.28;4.03;;;;;;;16.38;63.99;94911.16;4996726;28;20042;-69
2024/03/29 08:59:15;;;;;;;4.60;2.05;;;;;;;16.46;62.03;94910.91;4995194;28;20037;-70
2024/03/29 09:01:45;;;;;;;3.22;1.75;;;;;;;17.16;60.87;94914.31;4983531;28;20042;-70
2024/03/29 09:04:14;;;;;;;3.08;2.03;;;;;;;17.77;57.59;94923.81;4997309;28;20030;-71
2024/03/29 09:06:39;;;;;;;2.97;1.10;;;;;;;18.47;54.39;94931.63;4999584;28;20044;-68
2024/03/29 09:09:06;;;;;;;2.20;1.00;;;;;;;19.16;50.64;94923.09;4978670;28;20451;-70
2024/03/29 09:11:32;;;;;;;1.58;0.90;;;;;;;19.56;48.37;94933.16;4983164;28;20137;-70
2024/03/29 09:14:01;;;;;;;1.58;1.00;;;;;;;19.97;48.10;94941.94;4999378;28;20105;-69
2024/03/29 09:16:30;;;;;;;5.13;1.67;;;;;;;19.31;48.48;94932.31;4979145;28;20034;-69
2024/03/29 09:18:55;;;;;;;3.33;1.23;;;;;;;19.52;48.59;94930.56;5000719;28;20068;-71
2024/03/29 09:21:21;;;;;;;1.48;0.70;;;;;;;20.22;46.94;94924.81;4995306;28;20228;-70
2024/03/29 09:23:48;;;;;;;3.05;1.02;;;;;;;20.77;44.65;94940.31;5002168;28;20142;-71
2024/03/29 09:26:14;;;;;;;3.80;1.40;;;;;;;21.30;43.76;94946.31;4995017;28;20041;-70
2024/03/29 09:28:40;;;;;;;2.72;1.50;;;;;;;21.66;42.70;94945.19;5000736;28;20037;-71
2024/03/29 09:31:05;;;;;;;4.55;1.50;;;;;;;21.92;40.85;94947.34;4996415;28;20464;-71
2024/03/29 09:33:31;;;;;;;4.78;2.13;;;;;;;22.09;39.16;94947.56;5001667;28;20049;-70
2024/03/29 09:35:58;;;;;;;2.58;1.10;;;;;;;22.39;38.49;94955.88;5000835;28;20129;-70
2024/03/29 09:38:24;;;;;;;2.67;1.80;;;;;;;22.82;37.17;94958.94;4996460;28;20342;-69
2024/03/29 09:41:03;;;;;;;1.95;1.00;;;;;;;22.90;36.18;94946.06;5003749;28;20049;-71
2024/03/29 09:43:29;;;;;;;1.97;0.87;;;;;;;23.00;35.13;94944.66;5006442;28;20041;-70
2024/03/29 09:45:55;;;;;;;1.65;0.60;;;;;;;23.10;34.61;94948.06;5001943;28;20277;-69
2024/03/29 09:48:21;;;;;;;2.33;0.60;;;;;;;23.03;35.01;94942.88;4979792;28;20449;-71
2024/03/29 09:50:48;;;;;;;1.08;0.60;;;;;;;23.20;35.51;94945.91;5002775;28;20065;-71
2024/03/29 09:53:14;;;;;;;1.75;0.95;;;;;;;21.06;37.36;94947.19;4980659;28;20046;-69
2024/03/29 09:55:39;;;;;;;3.72;0.80;;;;;;;21.23;37.36;94943.91;5003410;28;20038;-71
2024/03/29 09:58:05;;;;;;;3.20;1.55;;;;;;;22.82;36.81;94934.56;4997521;28;20037;-69
2024/03/29 10:00:31;;;;;;;3.40;1.65;;;;;;;21.18;38.78;94935.00;4999537;28;20629;-71
2024/03/29 10:03:00;;;;;;;1.83;0.82;;;;;;;19.82;41.30;94925.19;4999018;28;20510;-71
2024/03/29 10:05:29;;;;;;;1.67;0.90;;;;;;;20.85;40.53;94934.38;4995878;28;20041;-70
2024/03/29 10:07:56;;;;;;;2.00;0.82;;;;;;;21.33;39.50;94939.81;5001148;28;20033;-69
2024/03/29 10:10:21;;;;;;;3.67;1.00;;;;;;;22.38;37.84;94938.34;4991944;28;20804;-69
2024/03/29 10:12:47;;;;;;;8.75;4.32;;;;;;;21.15;39.75;94930.38;4996018;28;20042;-71
2024/03/29 10:15:16;;;;;;;2.30;1.23;;;;;;;20.82;40.06;94927.78;4992983;28;20479;-71
2024/03/29 10:17:46;;;;;;;2.75;0.90;;;;;;;20.86;40.31;94916.47;4998272;28;20065;-69
2024/03/29 10:20:12;;;;;;;2.15;1.10;;;;;;;21.18;39.77;94921.06;4994481;28;20046;-69
2024/03/29 10:22:43;;;;;;;2.13;0.80;;;;;;;22.32;38.41;94918.00;4981421;28;20045;-69
2024/03/29 10:25:09;;;;;;;6.63;3.30;;;;;;;23.69;35.86;94921.66;4996064;28;20040;-70
2024/03/29 10:27:35;;;;;;;8.32;4.82;;;;;;;23.09;35.97;94918.63;4983039;28;20046;-69
2024/03/29 10:30:01;;;;;;;3.60;1.55;;;;;;;21.18;38.59;94904.38;4999292;28;20036;-70
2024/03/29 10:32:26;;;;;;;3.47;1.00;;;;;;;20.84;39.16;94905.81;4979356;28;20041;-71
2024/03/29 10:34:52;;;;;;;4.20;2.55;;;;;;;21.11;37.41;94915.91;5000756;28;20416;-70
2024/03/29 10:37:26;;;;;;;5.65;2.00;;;;;;;21.23;39.73;94907.72;4977802;28;20526;-70
2024/03/29 10:39:52;;;;;;;2.05;0.82;;;;;;;20.06;39.31;94903.00;5000603;28;20042;-71
2024/03/29 10:42:20;;;;;;;3.17;1.17;;;;;;;20.84;40.46;94896.69;4997183;28;20050;-71
2024/03/29 10:44:48;;;;;;;2.15;0.73;;;;;;;21.07;41.26;94895.06;4983956;28;20042;-70
2024/03/29 10:47:19;;;;;;;4.32;1.40;;;;;;;21.65;42.58;94889.94;4994381;28;20203;-70
2024/03/29 10:49:49;;;;;;;1.90;0.80;;;;;;;21.66;42.90;94897.03;5001027;28;20042;-70
2024/03/29 10:52:16;;;;;;;2.83;1.05;;;;;;;21.36;45.39;94885.94;4994653;28;20045;-71
2024/03/29 10:54:44;;;;;;;3.05;1.00;;;;;;;21.04;46.26;94876.56;4999056;28;20038;-70
2024/03/29 10:57:24;;;;;;;3.08;1.27;;;;;;;20.36;47.39;94853.81;4995595;28;20030;-70
2024/03/29 11:00:14;;;;;;;2.38;1.10;;;;;;;19.75;48.36;94848.53;5002208;28;20074;-70
2024/03/29 11:03:03;;;;;;;3.00;1.30;;;;;;;19.86;46.91;94864.66;5003363;28;20045;-71
2024/03/29 11:05:30;;;;;;;3.35;1.30;;;;;;;19.27;48.37;94856.78;5003314;28;20038;-71
2024/03/29 11:07:57;;;;;;;3.42;1.20;;;;;;;19.55;49.40;94864.97;5003902;28;20050;-71
2024/03/29 11:10:38;;;;;;;6.00;1.55;;;;;;;18.97;49.28;94866.91;4982142;28;20056;-71
2024/03/29 11:13:17;;;;;;;3.03;1.42;;;;;;;18.58;48.48;94863.84;4999971;28;20260;-69
2024/03/29 11:15:45;;;;;;;4.13;1.20;;;;;;;18.96;47.06;94863.38;5003773;28;20042;-70
2024/03/29 11:18:12;;;;;;;2.75;1.00;;;;;;;19.27;46.57;94867.88;5000335;28;20605;-70
2024/03/29 11:20:40;;;;;;;2.35;1.10;;;;;;;19.37;45.75;94869.38;5003777;28;20365;-70
2024/03/29 11:23:14;;;;;;;1.52;0.80;;;;;;;19.79;47.13;94860.25;4999380;28;20168;-70
2024/03/29 11:25:49;;;;;;;2.95;1.30;;;;;;;20.24;45.26;94858.41;5004537;28;20038;-69
2024/03/29 11:28:26;;;;;;;6.88;1.02;;;;;;;20.76;43.89;94865.69;4997586;28;20093;-69
2024/03/29 11:30:53;;;;;;;2.83;1.00;;;;;;;20.58;45.09;94850.69;5005053;28;20116;-68
2024/03/29 11:33:36;;;;;;;1.95;0.80;;;;;;;20.67;45.50;94838.75;4999193;28;20099;-71
2024/03/29 11:36:13;;;;;;;4.00;0.85;;;;;;;21.34;43.29;94838.31;4999498;28;20409;-69
2024/03/29 11:38:40;;;;;;;2.42;1.02;;;;;;;20.77;43.61;94831.81;5005328;28;20049;-70